sensor_id;sensor_type;location;lat;lon;timestamp;P1;durP1;ratioP1;P2;durP2;ratioP2
42666;SDS011;28280;49.646;14.130;2024-01-30T00:02:48;9.10;;;5.28;;
42666;SDS011;28280;49.646;14.130;2024-01-30T00:13:09;9.25;;;5.22;;
42666;SDS011;28280;49.646;14.130;2024-01-30T00:23:30;10.00;;;4.85;;
42666;SDS011;28280;49.646;14.130;2024-01-30T00:33:51;9.70;;;5.18;;
42666;SDS011;28280;49.646;14.130;2024-01-30T00:44:13;9.30;;;4.88;;
42666;SDS011;28280;49.646;14.130;2024-01-30T00:54:35;8.60;;;5.10;;
42666;SDS011;28280;49.646;14.130;2024-01-30T01:04:56;11.48;;;4.95;;
42666;SDS011;28280;49.646;14.130;2024-01-30T01:15:17;10.93;;;4.75;;
42666;SDS011;28280;49.646;14.130;2024-01-30T01:25:38;9.90;;;4.75;;
42666;SDS011;28280;49.646;14.130;2024-01-30T01:36:00;8.32;;;4.85;;
42666;SDS011;28280;49.646;14.130;2024-01-30T01:46:24;9.65;;;4.80;;
42666;SDS011;28280;49.646;14.130;2024-01-30T01:56:48;9.18;;;4.75;;
42666;SDS011;28280;49.646;14.130;2024-01-30T02:07:09;9.30;;;5.03;;
42666;SDS011;28280;49.646;14.130;2024-01-30T02:17:31;9.18;;;5.00;;
42666;SDS011;28280;49.646;14.130;2024-01-30T02:27:52;9.77;;;4.72;;
42666;SDS011;28280;49.646;14.130;2024-01-30T02:38:13;11.27;;;5.63;;
42666;SDS011;28280;49.646;14.130;2024-01-30T02:48:36;10.25;;;4.97;;
42666;SDS011;28280;49.646;14.130;2024-01-30T02:58:59;8.98;;;4.93;;
42666;SDS011;28280;49.646;14.130;2024-01-30T03:09:21;8.50;;;4.55;;
42666;SDS011;28280;49.646;14.130;2024-01-30T03:19:42;7.25;;;4.95;;
42666;SDS011;28280;49.646;14.130;2024-01-30T03:30:04;10.05;;;5.03;;
42666;SDS011;28280;49.646;14.130;2024-01-30T03:40:26;7.80;;;4.85;;
42666;SDS011;28280;49.646;14.130;2024-01-30T03:50:48;9.55;;;4.93;;
42666;SDS011;28280;49.646;14.130;2024-01-30T04:01:12;8.38;;;4.90;;
42666;SDS011;28280;49.646;14.130;2024-01-30T04:11:37;7.32;;;4.53;;
42666;SDS011;28280;49.646;14.130;2024-01-30T04:21:58;7.60;;;4.53;;
42666;SDS011;28280;49.646;14.130;2024-01-30T04:32:19;7.63;;;5.07;;
42666;SDS011;28280;49.646;14.130;2024-01-30T04:42:40;9.05;;;5.05;;
42666;SDS011;28280;49.646;14.130;2024-01-30T04:53:02;12.30;;;5.72;;
42666;SDS011;28280;49.646;14.130;2024-01-30T05:03:23;11.68;;;5.90;;
42666;SDS011;28280;49.646;14.130;2024-01-30T05:13:45;9.77;;;5.70;;
42666;SDS011;28280;49.646;14.130;2024-01-30T05:24:07;11.10;;;5.80;;
42666;SDS011;28280;49.646;14.130;2024-01-30T05:34:30;10.50;;;5.65;;
42666;SDS011;28280;49.646;14.130;2024-01-30T05:44:51;12.27;;;6.93;;
42666;SDS011;28280;49.646;14.130;2024-01-30T05:55:12;15.25;;;6.75;;
42666;SDS011;28280;49.646;14.130;2024-01-30T06:05:34;11.88;;;6.57;;
42666;SDS011;28280;49.646;14.130;2024-01-30T06:15:56;13.15;;;7.07;;
42666;SDS011;28280;49.646;14.130;2024-01-30T06:26:17;11.00;;;6.90;;
42666;SDS011;28280;49.646;14.130;2024-01-30T06:36:39;12.55;;;7.35;;
42666;SDS011;28280;49.646;14.130;2024-01-30T06:47:00;13.13;;;7.43;;
42666;SDS011;28280;49.646;14.130;2024-01-30T06:57:21;13.48;;;7.63;;
42666;SDS011;28280;49.646;14.130;2024-01-30T07:07:43;12.98;;;7.65;;
42666;SDS011;28280;49.646;14.130;2024-01-30T07:18:05;13.50;;;8.02;;
42666;SDS011;28280;49.646;14.130;2024-01-30T07:28:27;14.82;;;7.97;;
42666;SDS011;28280;49.646;14.130;2024-01-30T07:38:48;14.13;;;7.82;;
42666;SDS011;28280;49.646;14.130;2024-01-30T07:49:09;17.10;;;8.73;;
42666;SDS011;28280;49.646;14.130;2024-01-30T07:59:31;15.52;;;8.70;;
42666;SDS011;28280;49.646;14.130;2024-01-30T08:09:52;15.55;;;8.90;;
42666;SDS011;28280;49.646;14.130;2024-01-30T08:20:14;14.55;;;8.00;;
42666;SDS011;28280;49.646;14.130;2024-01-30T08:30:35;15.98;;;8.82;;
42666;SDS011;28280;49.646;14.130;2024-01-30T08:40:56;17.63;;;9.13;;
42666;SDS011;28280;49.646;14.130;2024-01-30T08:51:18;15.82;;;8.98;;
42666;SDS011;28280;49.646;14.130;2024-01-30T09:01:40;15.13;;;8.20;;
42666;SDS011;28280;49.646;14.130;2024-01-30T09:12:15;17.55;;;9.18;;
42666;SDS011;28280;49.646;14.130;2024-01-30T09:22:36;16.52;;;9.23;;
42666;SDS011;28280;49.646;14.130;2024-01-30T09:32:57;18.83;;;10.50;;
42666;SDS011;28280;49.646;14.130;2024-01-30T09:43:19;17.42;;;9.73;;
42666;SDS011;28280;49.646;14.130;2024-01-30T09:53:46;16.65;;;9.52;;
42666;SDS011;28280;49.646;14.130;2024-01-30T10:04:08;17.60;;;9.68;;
42666;SDS011;28280;49.646;14.130;2024-01-30T10:14:29;17.48;;;9.10;;
42666;SDS011;28280;49.646;14.130;2024-01-30T10:24:51;16.33;;;9.68;;
42666;SDS011;28280;49.646;14.130;2024-01-30T10:35:12;20.15;;;10.50;;
42666;SDS011;28280;49.646;14.130;2024-01-30T10:45:34;22.58;;;10.85;;
42666;SDS011;28280;49.646;14.130;2024-01-30T10:55:56;19.83;;;11.32;;
42666;SDS011;28280;49.646;14.130;2024-01-30T11:06:22;21.83;;;11.68;;
42666;SDS011;28280;49.646;14.130;2024-01-30T11:16:44;18.40;;;10.57;;
42666;SDS011;28280;49.646;14.130;2024-01-30T11:27:08;21.27;;;11.90;;
42666;SDS011;28280;49.646;14.130;2024-01-30T11:47:55;21.13;;;11.95;;
42666;SDS011;28280;49.646;14.130;2024-01-30T11:58:16;21.23;;;11.90;;
42666;SDS011;28280;49.646;14.130;2024-01-30T12:08:38;21.83;;;11.73;;
42666;SDS011;28280;49.646;14.130;2024-01-30T12:19:00;22.83;;;11.50;;
42666;SDS011;28280;49.646;14.130;2024-01-30T12:29:23;21.05;;;11.60;;
42666;SDS011;28280;49.646;14.130;2024-01-30T12:39:45;26.48;;;12.05;;
42666;SDS011;28280;49.646;14.130;2024-01-30T12:50:07;19.55;;;10.80;;
42666;SDS011;28280;49.646;14.130;2024-01-30T13:00:28;25.90;;;12.60;;
42666;SDS011;28280;49.646;14.130;2024-01-30T13:10:49;22.88;;;12.50;;
42666;SDS011;28280;49.646;14.130;2024-01-30T13:21:11;22.55;;;11.45;;
42666;SDS011;28280;49.646;14.130;2024-01-30T13:31:32;21.70;;;11.73;;
42666;SDS011;28280;49.646;14.130;2024-01-30T13:41:53;21.73;;;11.73;;
42666;SDS011;28280;49.646;14.130;2024-01-30T13:52:15;22.48;;;12.07;;
42666;SDS011;28280;49.646;14.130;2024-01-30T14:02:36;22.05;;;12.38;;
42666;SDS011;28280;49.646;14.130;2024-01-30T14:12:59;22.27;;;11.65;;
42666;SDS011;28280;49.646;14.130;2024-01-30T14:23:20;20.13;;;11.60;;
42666;SDS011;28280;49.646;14.130;2024-01-30T14:33:48;21.80;;;12.82;;
42666;SDS011;28280;49.646;14.130;2024-01-30T14:44:09;21.38;;;11.80;;
42666;SDS011;28280;49.646;14.130;2024-01-30T14:54:31;21.42;;;11.98;;
42666;SDS011;28280;49.646;14.130;2024-01-30T15:04:52;19.70;;;11.88;;
42666;SDS011;28280;49.646;14.130;2024-01-30T15:15:13;20.98;;;11.45;;
42666;SDS011;28280;49.646;14.130;2024-01-30T15:25:35;23.73;;;13.10;;
42666;SDS011;28280;49.646;14.130;2024-01-30T15:35:57;23.13;;;12.43;;
42666;SDS011;28280;49.646;14.130;2024-01-30T15:46:19;19.90;;;11.95;;
42666;SDS011;28280;49.646;14.130;2024-01-30T15:56:41;19.80;;;12.15;;
42666;SDS011;28280;49.646;14.130;2024-01-30T16:07:02;20.80;;;12.77;;
42666;SDS011;28280;49.646;14.130;2024-01-30T16:17:25;23.92;;;13.25;;
42666;SDS011;28280;49.646;14.130;2024-01-30T16:27:47;22.25;;;13.25;;
42666;SDS011;28280;49.646;14.130;2024-01-30T16:38:08;24.88;;;13.57;;
42666;SDS011;28280;49.646;14.130;2024-01-30T16:48:30;29.75;;;15.40;;
42666;SDS011;28280;49.646;14.130;2024-01-30T16:58:51;26.13;;;13.07;;
42666;SDS011;28280;49.646;14.130;2024-01-30T17:09:12;26.58;;;13.95;;
42666;SDS011;28280;49.646;14.130;2024-01-30T17:19:36;29.15;;;15.10;;
42666;SDS011;28280;49.646;14.130;2024-01-30T17:29:57;28.40;;;14.93;;
42666;SDS011;28280;49.646;14.130;2024-01-30T17:40:20;28.88;;;15.48;;
42666;SDS011;28280;49.646;14.130;2024-01-30T17:50:41;28.85;;;15.65;;
42666;SDS011;28280;49.646;14.130;2024-01-30T18:01:04;27.88;;;14.90;;
42666;SDS011;28280;49.646;14.130;2024-01-30T18:11:25;30.75;;;15.50;;
42666;SDS011;28280;49.646;14.130;2024-01-30T18:21:47;24.45;;;13.55;;
42666;SDS011;28280;49.646;14.130;2024-01-30T18:32:08;25.60;;;13.10;;
42666;SDS011;28280;49.646;14.130;2024-01-30T18:42:30;27.58;;;14.98;;
42666;SDS011;28280;49.646;14.130;2024-01-30T18:52:51;26.55;;;14.40;;
42666;SDS011;28280;49.646;14.130;2024-01-30T19:03:13;26.65;;;13.95;;
42666;SDS011;28280;49.646;14.130;2024-01-30T19:13:35;29.42;;;15.20;;
42666;SDS011;28280;49.646;14.130;2024-01-30T19:23:57;27.50;;;13.77;;
42666;SDS011;28280;49.646;14.130;2024-01-30T19:34:21;26.30;;;14.68;;
42666;SDS011;28280;49.646;14.130;2024-01-30T19:44:43;29.23;;;15.00;;
42666;SDS011;28280;49.646;14.130;2024-01-30T19:55:05;27.27;;;14.90;;
42666;SDS011;28280;49.646;14.130;2024-01-30T20:05:27;26.90;;;13.98;;
42666;SDS011;28280;49.646;14.130;2024-01-30T20:15:48;26.88;;;14.43;;
42666;SDS011;28280;49.646;14.130;2024-01-30T20:26:11;26.52;;;14.05;;
42666;SDS011;28280;49.646;14.130;2024-01-30T20:36:32;26.83;;;14.07;;
42666;SDS011;28280;49.646;14.130;2024-01-30T20:46:53;25.67;;;14.68;;
42666;SDS011;28280;49.646;14.130;2024-01-30T20:57:15;27.73;;;14.63;;
42666;SDS011;28280;49.646;14.130;2024-01-30T21:07:36;27.50;;;14.70;;
42666;SDS011;28280;49.646;14.130;2024-01-30T21:17:58;27.23;;;14.73;;
42666;SDS011;28280;49.646;14.130;2024-01-30T21:28:20;28.58;;;16.23;;
42666;SDS011;28280;49.646;14.130;2024-01-30T21:38:41;27.52;;;14.18;;
42666;SDS011;28280;49.646;14.130;2024-01-30T21:49:03;27.48;;;14.70;;
42666;SDS011;28280;49.646;14.130;2024-01-30T21:59:24;28.15;;;15.45;;
42666;SDS011;28280;49.646;14.130;2024-01-30T22:09:45;31.90;;;17.00;;
42666;SDS011;28280;49.646;14.130;2024-01-30T22:20:07;27.90;;;15.35;;
42666;SDS011;28280;49.646;14.130;2024-01-30T22:30:29;27.10;;;14.60;;
42666;SDS011;28280;49.646;14.130;2024-01-30T22:40:50;27.45;;;15.57;;
42666;SDS011;28280;49.646;14.130;2024-01-30T22:51:12;31.45;;;16.30;;
42666;SDS011;28280;49.646;14.130;2024-01-30T23:01:33;29.20;;;15.75;;
42666;SDS011;28280;49.646;14.130;2024-01-30T23:11:54;25.52;;;13.93;;
42666;SDS011;28280;49.646;14.130;2024-01-30T23:22:16;28.40;;;14.52;;
42666;SDS011;28280;49.646;14.130;2024-01-30T23:32:37;27.98;;;14.63;;
42666;SDS011;28280;49.646;14.130;2024-01-30T23:43:03;26.10;;;13.98;;
42666;SDS011;28280;49.646;14.130;2024-01-30T23:53:25;24.20;;;14.50;;
